Latest Observation

66 Stations

10 Minute Data
as of 5/6/26 6:23 AM PDT
Station Date Time Temp (°F) RH (%) Dew Pt (°F) Wind Spd (mph) Wind Dir (°) Wind Gust (mph) Wind Gst Dir (°) Latest Rain (In) Soil Moist (%) Soil Temp (°F) Daily Rain (In) Daily Min Temp (°F) Daily Max Temp (°F) Daily Max Wind (mph)
Hobart Mills 5/6/26 0620 35.6   1.5 99   1 35.5   1.6 0.0   0.0 N | 0 0.0   0.0 W | 275 0.00 - 32.0   0.0 0.03 35.6   1.2 45.9   0.0 6.0   0.0
Prosser Dam 5/6/26 0620 36.4   1.2 98   1 35.9   1.0 1.0   0.1 E | 92 1.9   1.0 E | 94 0.00 25.2   0.7 48.8   2.3 0.00 36.0   0.7 41.7   4.0 4.1   0.0
West Incline Village 5/6/26 0620 42.1   8.4 92   8 40.0   6.3 1.5   1.2 NNE | 25 2.4   0.7 NNE | 26 0.00 34.8   0.9 44.1   0.8 0.00 41.9   9.4 46.1   11.8 4.1   1.0
Incline Village (Fairview Blvd) 5/6/26 0620 42.0   7.3 93   6 40.2   5.7 0.0   0.0 N | 0 0.0   0.0 NE | 44 0.00 27.5   2.1 49.5   0.4 0.00 41.2   7.7 46.5   11.7 0.0   1.5
Incline Village (Diamond Peak) 5/6/26 0620 43.0   9.6 71   28 34.3   1.1 0.0   0.0 N | 0 0.0   0.0 SW | 221 0.00 10.1   1.9 43.3   2.0 0.00 42.7   10.9 45.3   11.8 2.1   2.1
Incline Village (Mill Creek) 5/6/26 0620 40.6   5.0 93   5 38.6   3.6 0.4   0.4 E | 97 2.0   2.0 ESE | 114 0.00 11.5   0.3 44.9   0.6 0.00 40.4   6.6 44.4   8.7 3.4   1.6
Incline Village (Lakeshore Blvd) 5/6/26 0620 36.6   0.7 99   1 36.3   0.9 0.9   0.9 NE | 46 1.7   1.7 NE | 53 0.00 34.9   3.0 48.6   2.5 0.00 36.4   0.6 41.3   3.8 3.0   0.4
Glenbrook 5/6/26 0620 39.2   2.8 97   1 38.3   3.0 0.7   0.8 ESE | 103 2.1   1.5 ESE | 110 0.00 44.3   0.0 44.6   0.1 0.00 38.4   4.3 41.5   5.1 3.5   2.5
Zephyr Cove 5/6/26 0620 41.7   6.8 96   3 40.7   6.0 0.0   0.0 N | 0 0.0   0.0 ENE | 60 0.00 - 34.3   0.0 0.00 41.6   8.9 43.2   8.2 0.9   0.9
Kingsbury Grade 5/6/26 0620 38.8   5.4 96   2 37.7   4.8 0.8   0.8 NNE | 22 3.2   3.2 NNE | 15 0.00 6.5   1.5 48.7   1.5 0.00 38.1   6.1 41.2   7.2 4.1   4.1
South Daggett Pass (Ridge) 5/6/26 0620 41.5   9.2 92   8 39.4   7.0 1.9   1.8 W | 269 5.7   2.7 WSW | 256 0.00 6.9   0.4 45.8   0.6 0.00 41.4   10.1 44.7   12.0 6.3   4.0
Palomino Valley 5/6/26 0620 46.3   1.8 80   4 40.4   3.1 3.9   3.9 ESE | 105 6.6   6.6 E | 95 0.00 6.8   0.1 63.3   1.7 0.00 45.8   0.4 55.6   7.4 7.7   2.6
East Cold Springs 5/6/26 0620 48.8   6.1 75   13 41.3   1.9 9.9   0.1 WSW | 255 13.8   0.8 W | 262 0.00 1.7   0.1 55.8   2.2 0.00 47.4   7.1 57.6   14.1 20.4   2.6
Peavine 5/6/26 0620 51.1   7.7 58   29 37.1   2.9 0.0   4.5 N | 0 0.0   8.8 ESE | 103 0.00 - 53.4   0.0 0.00 49.4   8.8 56.9   12.8 14.4   1.9
West Verdi Peak 5/6/26 0620 44.2   5.1 83   8 39.5   2.7 2.2   1.4 NW | 311 5.1   2.6 NW | 309 0.00 22.4   0.6 51.3   2.4 0.00 43.0   5.9 50.7   10.7 7.6   4.1
West Verdi 5/6/26 0620 46.3   4.0 82   11 41.0   0.7 0.5   2.4 NW | 309 2.2   2.4 WNW | 297 0.00 8.4   0.0 59.1   2.5 0.00 45.4   5.2 53.4   10.9 8.6   2.1
South Verdi 5/6/26 0620 52.4   9.8 62   21 39.6   2.0 10.8   5.3 WSW | 248 14.0   5.2 WSW | 248 0.00 16.9   0.1 55.1   5.1 0.00 48.2   7.1 57.1   14.4 21.9   1.5
Northwest Reno 5/6/26 0620 56.8   12.1 53   34 39.8   1.3 8.3   5.1 W | 280 11.0   6.5 W | 279 0.00 23.6   0.1 60.0   2.1 0.00 53.4   9.8 61.4   15.9 18.9   5.3
North Lawton 5/6/26 0620 49.1   5.1 72   10 40.4   1.7 7.5   0.1 WSW | 258 12.0   0.9 WSW | 256 0.00 - 39.1   0.0 0.00 48.9   6.4 57.5   13.4 16.9   0.1
West Reno (Mogul) 5/6/26 0620 52.4   8.4 64   19 40.4   1.2 6.8   5.6 WSW | 257 8.4   3.2 WNW | 288 0.00 38.3   0.3 60.0   0.1 0.00 49.5   6.9 59.3   12.7 14.8   1.2
Caughlin (Hunter Lake Trail) 9/16/25 0800 59.7   3.5 41   11 35.9   2.7 0.0   0.0 N | 0 0.0   0.0 ENE | 66 0.00 15.7   0.0 69.8   0.5 0.00 55.7   3.2 67.7   9.1 9.4   0.9
ArrowCreek 5/6/26 0620 49.7   5.0 72   15 41.1   0.1 4.7   4.7 S | 180 6.2   6.2 S | 186 0.00 - 32.0   0.0 0.00 49.1   5.7 57.3   12.4 8.7   4.3
Tracy 5/6/26 0620 54.6   5.4 65   9 43.0   1.8 9.8   1.9 WSW | 243 12.3   4.6 WSW | 250 0.00 7.9   0.1 61.6   0.7 0.00 53.9   6.1 57.4   8.1 16.3   2.7
Virginia Highlands 5/6/26 0620 51.2   10.3 65   30 40.0   0.4 2.7   2.0 SW | 232 4.5   0.4 SW | 234 0.00 8.8   0.8 55.3   0.4 0.00 51.0   10.9 54.2   12.8 9.2   1.0
Virginia City 5/6/26 0620 52.6   9.8 57   28 37.8   0.8 15.3   5.1 N | 353 22.1   4.1 NNW | 345 0.00 8.2   0.0 52.6   0.8 0.00 49.5   10.9 54.9   11.8 24.2   3.1
Six Mile Canyon 9/9/25 0630 60.2   9.6 37   6 33.7   4.8 4.1   2.5 W | 277 6.1   2.9 WNW | 286 0.00 12.5   0.0 75.5   0.7 0.00 57.9   7.6 64.4   1.9 7.0   3.9
Mt Rose Highway 4/30/26 0510 40.8   4.7 47   13 22.3   1.3 2.3   0.2 WSW | 243 4.8   2.1 WSW | 246 0.00 24.1   0.3 43.0   0.8 0.00 40.5   4.7 43.0   5.3 7.7   0.4
Pleasant Valley 5/6/26 0620 45.4   1.5 80   11 39.8   2.0 0.0   0.4 N | 0 0.0   1.2 SE | 125 0.00 2.8   0.0 58.8   0.2 0.00 45.3   1.9 52.5   8.1 7.2   1.2
New Washoe City 5/6/26 0620 49.0   5.6 73   22 40.7   1.3 0.6   0.5 NE | 35 5.5   3.4 NE | 55 0.00 4.4   0.0 57.8   1.3 0.00 45.3   2.5 50.4   6.6 8.1   3.4
Franktown Creek 5/6/26 0620 44.6   0.8 79   19 38.5   4.7 0.2   0.2 WNW | 293 2.6   2.6 WNW | 302 0.00 11.2   0.2 54.2   0.4 0.00 44.0   1.2 48.5   4.6 4.3   0.2
Musgrove Creek 5/6/26 0620 50.9   9.1 62   31 38.4   1.6 1.1   1.1 SW | 222 2.0   0.6 SSW | 200 0.00 45.1   0.2 52.2   0.0 0.00 49.4   8.5 52.4   10.3 3.5   4.8
East Carson 11/23/24 0110 28.6   28.4 - - 4.7   11.0 SW | 220 14.7   10.1 SW | 219 0.02 - 50.9   0.1 0.02 -25.9   79.1 42.9   14.6 16.0   10.7
Kings Canyon 5/6/26 0620 45.1   3.0 77   20 38.4   3.0 2.9   2.5 SSW | 193 6.3   3.8 SSE | 164 0.00 15.3   0.2 56.3   3.0 0.00 43.3   1.8 51.6   9.1 6.3   0.4
Carson City (Voltaire Canyon) 5/6/26 0620 50.5   7.5 68   24 40.5   0.5 0.0   6.3 N | 0 0.0   9.2 NNW | 327 0.00 2.8   0.0 59.6   1.1 0.00 50.2   8.0 55.0   11.6 15.9   2.5
Jacks Valley 5/6/26 0620 44.9   2.9 81   14 39.3   1.3 0.0   1.2 N | 0 0.0   2.9 E | 82 0.00 13.8   1.4 56.7   2.8 0.00 44.5   3.0 51.3   9.2 6.1   1.4
Genoa 5/6/26 0620 46.8   3.0 79   17 40.8   2.2 0.0   0.0 N | 0 0.0   0.0 SW | 230 0.00 10.1   2.4 49.9   0.2 0.00 45.8   2.1 50.3   5.8 2.5   1.2
South Genoa (Walleys Hot Springs) 5/6/26 0620 43.5   1.4 93   1 41.5   1.1 0.0   2.2 N | 0 0.0   4.2 ESE | 108 0.00 14.0   0.1 59.9   0.4 0.00 43.2   1.1 53.6   8.2 7.1   0.9
SW Gardnerville (HWY 88) 5/6/26 0620 42.7   1.2 88   2 39.3   0.5 0.7   4.4 SSE | 165 1.9   5.3 S | 174 0.00 3.4   0.1 54.8   0.3 0.00 41.6   1.8 52.1   7.8 10.2   2.9
Sheridan 5/6/26 0620 45.8   2.2 79   16 39.5   2.7 0.4   0.0 NW | 317 1.6   0.5 NW | 325 0.00 6.1   0.5 56.8   0.2 0.00 43.8   0.7 52.3   7.8 6.8   1.9
Ruhenstroth 5/6/26 0620 43.1   0.1 85   0 38.9   0.3 0.6   4.6 E | 88 2.2   6.5 E | 92 0.00 12.7   0.0 55.8   1.0 0.00 42.6   0.2 52.3   7.8 6.3   2.4
Double Spring 5/6/26 0620 40.6   1.8 86   7 36.7   0.2 4.4   1.3 NW | 317 5.6   1.9 NW | 319 0.00 30.4   1.9 52.2   0.0 0.00 37.5   1.0 46.7   5.0 6.0   4.5
North Topaz Lake 5/6/26 0620 48.0   6.4 68   25 37.9   1.8 0.0   2.6 N | 0 0.0   6.0 NNE | 20 0.00 8.9   0.0 50.2   1.7 0.00 47.3   5.8 52.7   8.6 9.9   10.8
Wild Oat Mountain 5/6/26 0620 47.9   9.2 67   25 37.5   0.9 2.1   0.4 SSW | 194 4.2   0.7 SSW | 195 0.00 16.5   0.1 56.1   0.8 0.00 47.0   8.4 50.4   8.2 10.3   4.1
Smith Valley 5/6/26 0620 45.6   1.1 82   9 40.6   1.6 4.7   4.5 WNW | 303 6.0   4.2 WNW | 295 0.00 5.7   0.1 59.4   1.1 0.00 43.9   0.6 50.9   4.5 6.8   0.4
Pine Grove Mountain 5/6/26 0620 44.6   12.7 62   35 32.4   1.3 7.9   3.4 NW | 323 11.3   4.2 NW | 313 0.00 23.5   4.1 44.5   0.3 0.00 44.3   12.5 46.7   13.7 12.8   5.7
Paradise Hill 5/6/26 0620 45.8   0.6 56   22 31.2   7.6 1.4   1.5 SW | 229 3.0   2.6 WNW | 296 0.00 8.0   0.1 60.0   0.4 0.00 44.9   1.4 56.7   3.2 9.3   3.5
Winnemucca 5/6/26 0620 44.6   0.5 66   20 33.8   7.3 4.4   0.4 SSW | 193 5.7   1.9 SSE | 166 0.00 5.9   0.0 58.2   0.3 0.00 43.9   0.5 52.8   3.0 8.3   6.1
NE Elko 5/6/26 0620 34.0   14.4 93   28 32.2   4.9 0.1   5.2 SSW | 193 0.7   8.3 S | 170 0.00 12.4   0.1 54.8   2.9 0.00 32.8   12.0 44.8   6.6 14.5   4.5
North Elko 5/6/26 0620 44.8   1.5 63   14 32.9   3.9 2.6   3.3 E | 86 4.2   6.6 ESE | 123 0.00 28.3   0.2 53.3   3.7 0.00 39.4   3.6 51.9   5.5 13.8   3.5
South Elko 5/6/26 0620 45.1   28.0 84   12 40.5   31.2 0.7   3.4 WSW | 241 3.4   2.4 ENE | 77 0.00 18.4   0.3 51.9   3.9 0.00 44.8   1.4 72.8   33.4 8.3   7.1
Lamoille 1/28/26 1720 33.2   0.5 65   17 22.8   6.3 5.8   1.5 SSE | 166 7.7   1.9 SE | 139 0.00 12.2   0.0 33.4   0.1 0.02 23.5   2.0 36.5   5.9 25.6   17.4
Reid Gardner Sub 5/6/26 0620 50.4   4.6 55   8 34.9   0.4 0.1   2.6 NW | 308 2.0   3.6 NNW | 328 0.00 24.1   0.0 71.6   0.0 0.00 50.0   4.6 64.6   1.9 4.8   10.6
Corn Creek 5/6/26 0620 59.7   7.1 35   17 32.2   3.3 7.4   3.0 WSW | 250 10.3   3.4 WSW | 254 0.00 3.9   0.1 71.0   1.2 0.00 59.1   6.9 61.4   3.4 13.0   0.7
Lucky Strike 5/6/26 0620 53.6   9.8 43   7 31.6   5.2 6.3   5.9 NW | 321 9.1   6.1 NW | 319 0.00 4.4   0.0 64.4   0.5 0.00 52.9   10.5 56.3   6.6 22.6   13.0
Lower Angel Peak 5/6/26 0620 48.2   13.5 53   10 32.1   8.4 1.7   1.8 ENE | 71 3.0   2.4 ENE | 75 0.00 10.2   0.2 53.8   0.7 0.00 42.1   8.5 48.8   9.0 7.2   1.6
Angel Peak 5/6/26 0620 37.6   8.0 72   1 29.4   7.3 9.5   2.3 NW | 312 21.1   10.9 WNW | 293 0.00 3.5   0.0 45.5   0.8 0.00 36.6   7.1 38.3   2.7 31.2   19.7
Upper Kyle Canyon 5/6/26 0620 43.6   12.3 57   5 29.4   13.7 6.2   4.5 NW | 304 13.7   8.8 WNW | 303 0.00 13.7   0.1 53.2   1.1 0.00 39.2   8.7 44.4   6.7 13.7   5.2
Mt Charleston 5/6/26 0620 45.4   13.6 54   1 29.8   12.3 4.7   2.6 W | 277 9.9   5.7 W | 280 0.00 18.3   0.0 48.2   0.1 0.00 38.6   7.4 45.8   8.4 13.4   6.2
Mid Kyle Canyon 5/6/26 0620 43.6   7.4 59   8 30.1   10.3 4.1   2.7 WSW | 252 7.8   2.1 WSW | 257 0.00 7.0   0.0 56.2   0.3 0.00 41.6   6.8 48.3   6.7 15.6   1.6
Blue Diamond 5/6/26 0620 56.1   6.5 39   13 31.8   1.3 2.6   2.2 WNW | 293 5.3   2.7 WNW | 282 0.00 3.5   0.0 68.9   0.2 0.00 55.8   7.8 62.6   6.5 18.6   0.1
Artesian Sub 5/6/26 0620 64.4   4.8 37   8 37.4   0.6 0.3   2.5 N | 3 3.1   3.6 N | 2 0.00 13.3   0.1 74.2   0.1 0.00 63.6   4.5 69.2   3.5 9.4   4.4
North Henderson 5/6/26 0620 63.8   2.2 36   5 36.7   1.4 5.2   1.1 NNE | 17 8.6   0.2 N | 9 0.00 8.9   0.2 78.8   0.2 0.00 62.7   1.2 71.3   5.6 16.2   3.5
Sandy Valley 5/6/26 0620 55.2   2.6 51   8 37.6   1.0 1.5   1.5 NNE | 33 5.6   5.6 N | 9 0.00 4.4   0.0 74.5   0.3 0.00 53.6   2.6 60.4   4.3 11.6   3.1
Searchlight 5/6/26 0620 52.2   4.2 56   8 36.9   0.4 2.6   2.4 NW | 325 4.6   2.5 NW | 321 0.00 4.6   0.1 69.2   0.5 0.00 47.8   1.0 55.5   2.6 7.0   2.5
Laughlin 5/6/26 0620 62.5   1.2 44   4 40.4   3.4 0.1   2.8 N | 358 1.0   3.4 N | 0 0.00 4.1   0.0 82.5   0.5 0.00 62.4   0.7 70.4   0.4 7.8   5.0
31Mission Hills 5/6/26 0620 59.8 38 33.9 11.3 SSE | 155 14.3 SSE | 158 0.00 3.6 71.9 0.00 59.7 64.5 15.8
Max     64.4 99 43.0 15.3 - 22.1 - 0.00 45.1 82.5 0.03 63.6 72.8 31.2
Avg     47.3 71 37.3 3.1 - 5.3 - 0.00 13.8 55.4 - - - -
Min     34.0 35 29.4 0.0 - 0.0 - 0.00 1.7 32.0 0.00 32.8 38.3 0.0